< < Back
Terminal Aerodrome Forecast


Current Version              Previous Versions:   1  2  3  4  5  6  7  8  9  

Terminal Aerodrome Forecast

903
FTUS42 KMLB 280300 AAA
TAFMCO
TAF AMD
KMCO 280314Z 2803/2824 31008KT P6SM SKC
     FM281400 34012KT P6SM SKC=

Latest METAR

590
SAUS70 KWBC 280400 RRC
MTRMCO
METAR KMCO 280353Z 33009KT 10SM CLR 13/09 A3005 RMK AO2 SLP176
T01330089


USA.gov is the U.S. government's official web portal to all federal, state and local government web resources and services.